This is the latest recevied weather packets stored in our database for station/object SP3PDK-1. If no packets are shown the sender has not sent any weather packets the latest 10 day(s).
| Time | Temp. | Humidity | Pressure | Rain* | Wind** | Luminosity | Snow |
|---|---|---|---|---|---|---|---|
| 1777695854 | 13.89° C | 58% | 1024.2 hPa | - | - | - | - |
| 1777695254 | 12.78° C | 61% | 1024.2 hPa | - | - | - | - |
| 1777694654 | 14.44° C | 56% | 1024.1 hPa | - | - | - | - |
| 1777694054 | 12.22° C | 65% | 1024.2 hPa | - | - | - | - |
| 1777693459 | 12.22° C | 64% | 1024.2 hPa | - | - | - | - |
| 1777692854 | 12.78° C | 63% | 1024.3 hPa | - | - | - | - |
| 1777692258 | 12.78° C | 62% | 1024.2 hPa | - | - | - | - |
| 1777691659 | 12.22° C | 65% | 1024.4 hPa | - | - | - | - |
| 1777691058 | 12.22° C | 65% | 1024.4 hPa | - | - | - | - |
| 1777689855 | 11.67° C | 65% | 1024.4 hPa | - | - | - | - |
| 1777689254 | 12.22° C | 65% | 1024.4 hPa | - | - | - | - |
| 1777688657 | 12.78° C | 62% | 1024.4 hPa | - | - | - | - |
| 1777688054 | 13.33° C | 61% | 1024.4 hPa | - | - | - | - |
| 1777687455 | 13.89° C | 60% | 1024.3 hPa | - | - | - | - |
| 1777686854 | 13.33° C | 62% | 1024.3 hPa | - | - | - | - |
| 1777686258 | 13.33° C | 61% | 1024.3 hPa | - | - | - | - |
| 1777685659 | 13.33° C | 60% | 1024.2 hPa | - | - | - | - |
| 1777684454 | 12.78° C | 64% | 1024.5 hPa | - | - | - | - |
| 1777683854 | 12.78° C | 61% | 1024.5 hPa | - | - | - | - |
| 1777683257 | 13.89° C | 58% | 1024.3 hPa | - | - | - | - |
| 1777682658 | 13.33° C | 60% | 1024.4 hPa | - | - | - | - |
| 1777682058 | 14.44° C | 57% | 1024.3 hPa | - | - | - | - |
| 1777681453 | 13.89° C | 57% | 1024.4 hPa | - | - | - | - |
| 1777680854 | 14.44° C | 57% | 1024.4 hPa | - | - | - | - |
| 1777680256 | 14.44° C | 56% | 1024.5 hPa | - | - | - | - |
* Rain since midnight (hover to see other rain measurements)
** Current wind speed in m/s (hover to see current wind gust speed)